Time;durP1;ratioP1;P1;durP2;ratioP2;P2;SDS_P1;SDS_P2;PMS_P1;PMS_P2;Temp;Humidity;BMP_temperature;BMP_pressure;BME280_temperature;BME280_humidity;BME280_pressure;Samples;Min_cycle;Max_cycle;Signal;HPM_P1;HPM_P2
2023/04/05 00:02:04;;;;;;;6.72;4.15;;;-3.60;99.90;;;;;;5020849;28;20375;-36
2023/04/05 00:04:33;;;;;;;6.85;4.95;;;-3.60;99.90;;;;;;5015268;28;20064;-36
2023/04/05 00:07:01;;;;;;;4.20;3.90;;;-3.50;99.90;;;;;;5021427;28;20053;-36
2023/04/05 00:09:28;;;;;;;7.70;5.30;;;-3.50;99.90;;;;;;5025576;28;20061;-36
2023/04/05 00:11:56;;;;;;;4.40;4.10;;;-3.50;99.90;;;;;;5024299;28;20057;-36
2023/04/05 00:14:23;;;;;;;6.18;4.38;;;-3.50;99.90;;;;;;5024982;28;20072;-35
2023/04/05 00:16:51;;;;;;;7.85;4.95;;;-3.50;99.90;;;;;;5025183;28;20049;-35
2023/04/05 00:19:21;;;;;;;5.63;5.13;;;-3.40;99.90;;;;;;5023059;28;20061;-36
2023/04/05 00:21:50;;;;;;;5.70;5.28;;;-3.40;99.90;;;;;;5024703;28;20045;-35
2023/04/05 00:24:17;;;;;;;7.38;4.35;;;-3.50;99.90;;;;;;5024790;28;20057;-36
2023/04/05 00:26:45;;;;;;;4.13;3.83;;;-3.50;99.90;;;;;;5024924;28;20060;-36
2023/04/05 00:29:12;;;;;;;4.63;4.22;;;-3.50;99.90;;;;;;5024769;28;20049;-36
2023/04/05 00:31:40;;;;;;;4.15;3.75;;;-3.50;99.90;;;;;;5006249;28;20056;-35
2023/04/05 00:34:09;;;;;;;6.97;4.35;;;-3.50;99.90;;;;;;5023512;28;20517;-35
2023/04/05 00:36:36;;;;;;;6.82;5.18;;;-3.50;99.90;;;;;;5022492;28;20060;-35
2023/04/05 00:39:04;;;;;;;5.93;4.45;;;-3.60;99.90;;;;;;5023817;28;20068;-36
2023/04/05 00:41:32;;;;;;;5.63;4.78;;;-3.60;99.90;;;;;;5025219;28;20064;-35
2023/04/05 00:43:59;;;;;;;6.68;4.10;;;-3.50;99.90;;;;;;5022681;28;20062;-36
2023/04/05 00:46:27;;;;;;;7.55;5.50;;;-3.50;99.90;;;;;;5025158;28;20056;-36
2023/04/05 00:48:55;;;;;;;14.57;8.30;;;-3.50;99.90;;;;;;5023837;28;20066;-36
2023/04/05 00:51:24;;;;;;;5.20;3.85;;;-3.50;99.90;;;;;;5023851;28;20045;-36
2023/04/05 00:53:52;;;;;;;5.70;4.55;;;-3.50;99.90;;;;;;5024536;28;20053;-35
2023/04/05 00:56:21;;;;;;;4.03;3.70;;;-3.40;99.90;;;;;;5025384;28;20048;-36
2023/04/05 00:58:50;;;;;;;4.88;4.25;;;-3.40;99.90;;;;;;5023295;28;20052;-36
2023/04/05 01:01:25;;;;;;;4.05;3.75;;;-3.40;99.90;;;;;;5017923;28;20065;-36
2023/04/05 01:04:01;;;;;;;7.45;6.20;;;-3.50;99.90;;;;;;5022738;28;20517;-36
2023/04/05 01:07:15;;;;;;;8.60;5.35;;;-3.60;99.90;;;;;;5024174;28;20064;-35
2023/04/05 01:09:54;;;;;;;5.75;5.03;;;-3.60;99.90;;;;;;4951493;28;20493;-35
2023/04/05 01:25:18;;;;;;;4.30;4.00;;;-3.80;99.90;;;;;;4885149;29;20445;-35
2023/04/05 01:27:48;;;;;;;6.18;5.53;;;-3.80;99.90;;;;;;4926654;28;20055;-35
2023/04/05 01:30:29;;;;;;;4.65;4.07;;;-3.80;99.90;;;;;;4981963;28;20046;-36
2023/04/05 01:33:17;;;;;;;5.85;4.97;;;-3.90;99.90;;;;;;5023948;28;20439;-34
2023/04/05 01:36:05;;;;;;;5.97;5.45;;;-4.00;99.90;;;;;;5021385;28;20049;-34
2023/04/05 01:38:38;;;;;;;7.75;4.65;;;-4.00;99.90;;;;;;5023280;28;20454;-35
2023/04/05 01:41:06;;;;;;;6.18;4.90;;;-4.00;99.90;;;;;;5023509;28;20061;-36
2023/04/05 01:43:33;;;;;;;6.30;5.22;;;-4.00;99.90;;;;;;5022911;28;20060;-37
2023/04/05 01:46:01;;;;;;;6.22;5.25;;;-4.00;99.90;;;;;;5023441;28;20045;-35
2023/04/05 01:48:30;;;;;;;5.72;5.07;;;-4.00;99.90;;;;;;5023193;28;20064;-35
2023/04/05 01:50:59;;;;;;;5.30;4.93;;;-4.00;99.90;;;;;;5019894;28;20076;-35
2023/04/05 01:53:27;;;;;;;4.80;4.50;;;-3.90;99.90;;;;;;5023624;28;20537;-36
2023/04/05 01:56:00;;;;;;;6.63;5.53;;;-3.90;99.90;;;;;;5020206;28;20064;-36
2023/04/05 01:58:28;;;;;;;6.95;5.28;;;-3.90;99.90;;;;;;5021912;28;20046;-36
2023/04/05 02:00:56;;;;;;;6.80;4.95;;;-3.80;99.90;;;;;;5022321;28;20065;-36
2023/04/05 02:03:24;;;;;;;12.98;6.32;;;-3.80;99.90;;;;;;5022133;28;20766;-37
2023/04/05 02:05:52;;;;;;;7.60;5.60;;;-3.90;99.90;;;;;;5020801;28;20057;-36
2023/04/05 02:08:20;;;;;;;4.97;4.57;;;-3.90;99.90;;;;;;5022657;28;20066;-38
2023/04/05 02:10:48;;;;;;;5.38;4.88;;;-3.90;99.90;;;;;;5021660;28;20050;-36
2023/04/05 02:13:16;;;;;;;6.18;5.57;;;-4.00;99.90;;;;;;4999601;28;20057;-36
2023/04/05 02:15:49;;;;;;;5.43;4.95;;;-4.00;99.90;;;;;;5022354;28;20049;-35
2023/04/05 02:18:28;;;;;;;5.57;5.07;;;-4.00;99.90;;;;;;5022783;28;20056;-36
2023/04/05 02:21:07;;;;;;;6.57;5.97;;;-4.00;99.90;;;;;;5020281;28;20647;-36
2023/04/05 02:23:35;;;;;;;7.30;5.60;;;-4.00;99.90;;;;;;5021799;28;20060;-36
2023/04/05 02:26:02;;;;;;;5.03;4.53;;;-4.00;99.90;;;;;;5017585;28;20058;-35
2023/04/05 02:28:30;;;;;;;8.43;5.82;;;-4.00;99.90;;;;;;5024183;28;20094;-36
2023/04/05 02:30:57;;;;;;;8.05;6.80;;;-4.10;99.90;;;;;;5021199;28;20042;-36
2023/04/05 02:33:26;;;;;;;5.22;4.78;;;-4.10;99.90;;;;;;5022788;28;20525;-36
2023/04/05 02:35:55;;;;;;;9.52;5.72;;;-4.10;99.90;;;;;;5020851;28;20053;-36
2023/04/05 02:38:22;;;;;;;7.55;6.10;;;-4.20;99.90;;;;;;5023658;28;20514;-36
2023/04/05 02:40:50;;;;;;;5.82;5.32;;;-4.20;99.90;;;;;;5027756;28;20573;-36
2023/04/05 02:43:17;;;;;;;6.85;5.18;;;-4.20;99.90;;;;;;5023126;28;20052;-35
2023/04/05 02:45:45;;;;;;;5.47;4.97;;;-4.20;99.90;;;;;;5022792;28;20053;-36
2023/04/05 02:48:14;;;;;;;5.80;5.35;;;-4.20;99.90;;;;;;5005329;28;20061;-36
2023/04/05 02:50:46;;;;;;;4.50;4.07;;;-4.30;99.90;;;;;;5006092;28;20049;-36
2023/04/05 02:53:13;;;;;;;4.60;4.20;;;-4.30;99.90;;;;;;5004455;28;20085;-37
2023/04/05 02:55:41;;;;;;;12.23;4.80;;;-4.40;99.90;;;;;;4998120;28;20042;-35
2023/04/05 02:58:09;;;;;;;6.43;5.75;;;-4.40;99.90;;;;;;4994993;28;20482;-36
2023/04/05 03:00:50;;;;;;;6.55;5.95;;;-4.40;99.90;;;;;;5020250;28;20049;-35
2023/04/05 03:03:25;;;;;;;4.97;4.53;;;-4.40;99.90;;;;;;5016160;28;20425;-35
2023/04/05 03:06:08;;;;;;;6.80;6.10;;;-4.30;99.90;;;;;;5002255;28;20049;-35
2023/04/05 03:08:42;;;;;;;9.15;7.65;;;-4.10;99.90;;;;;;5003716;28;20061;-36
2023/04/05 03:11:12;;;;;;;5.65;5.15;;;-4.10;99.90;;;;;;5019476;28;20302;-36
2023/04/05 03:13:45;;;;;;;6.55;5.93;;;-4.10;99.90;;;;;;5003718;28;20069;-36
2023/04/05 03:16:21;;;;;;;8.95;6.65;;;-3.80;99.90;;;;;;5014579;28;20049;-36
2023/04/05 03:18:49;;;;;;;6.45;5.35;;;-3.80;99.90;;;;;;5020602;28;20054;-38
2023/04/05 03:21:17;;;;;;;9.48;5.28;;;-3.80;99.90;;;;;;5018267;28;20620;-39
2023/04/05 03:23:54;;;;;;;8.27;4.97;;;-3.80;99.90;;;;;;5017507;28;20534;-38
2023/04/05 03:26:28;;;;;;;5.95;4.53;;;-3.80;99.90;;;;;;5003248;28;20053;-38
2023/04/05 03:28:56;;;;;;;8.30;6.03;;;-3.60;99.90;;;;;;5010763;28;20057;-39
2023/04/05 03:31:30;;;;;;;9.10;6.45;;;-3.60;99.90;;;;;;5004848;28;20249;-39
2023/04/05 03:34:01;;;;;;;5.88;5.38;;;-3.60;99.90;;;;;;5018764;28;20458;-39
2023/04/05 03:36:40;;;;;;;7.90;6.18;;;-3.50;99.90;;;;;;5015503;28;20053;-39
2023/04/05 03:39:15;;;;;;;11.32;7.63;;;-3.50;99.90;;;;;;5021957;28;20054;-39
2023/04/05 03:41:43;;;;;;;6.90;6.30;;;-3.50;99.90;;;;;;5021338;28;20053;-39
2023/04/05 03:44:11;;;;;;;7.05;5.65;;;-3.40;99.90;;;;;;5013673;28;20370;-38
2023/04/05 03:46:39;;;;;;;8.10;5.53;;;-3.40;99.90;;;;;;5003887;28;20437;-39
2023/04/05 03:49:06;;;;;;;6.07;5.32;;;-3.30;99.90;;;;;;5010462;28;20064;-39
2023/04/05 03:51:34;;;;;;;6.20;4.45;;;-3.40;99.90;;;;;;5001050;28;20049;-39
2023/04/05 03:54:01;;;;;;;6.55;5.28;;;-3.40;99.90;;;;;;5020801;28;20046;-39
2023/04/05 03:56:32;;;;;;;7.10;5.60;;;-3.30;99.90;;;;;;5020967;28;20053;-38
2023/04/05 03:59:09;;;;;;;5.40;4.90;;;-3.30;99.90;;;;;;5002812;28;20516;-39
2023/04/05 04:01:37;;;;;;;6.57;5.50;;;-3.30;99.90;;;;;;5016387;28;20053;-41
2023/04/05 04:04:05;;;;;;;6.32;5.72;;;-3.30;99.90;;;;;;4988447;28;20588;-38
2023/04/05 04:06:33;;;;;;;5.50;4.93;;;-3.50;99.90;;;;;;5019828;28;20045;-39
2023/04/05 04:09:04;;;;;;;5.65;5.22;;;-3.60;99.90;;;;;;5019064;28;20286;-39
2023/04/05 04:11:32;;;;;;;6.28;4.95;;;-3.70;99.90;;;;;;4999108;28;20050;-39
2023/04/05 04:14:03;;;;;;;6.50;5.73;;;-3.80;99.90;;;;;;5009696;28;20053;-39
2023/04/05 04:16:37;;;;;;;10.90;6.30;;;-4.00;99.90;;;;;;5016484;28;20046;-39
2023/04/05 04:19:30;;;;;;;5.63;4.15;;;-4.10;99.90;;;;;;4991835;28;20038;-40
2023/04/05 04:22:19;;;;;;;6.22;4.70;;;-4.00;99.90;;;;;;5009745;28;20502;-39
2023/04/05 04:25:09;;;;;;;7.00;5.78;;;-4.00;99.90;;;;;;5002373;28;20053;-38
2023/04/05 04:27:57;;;;;;;5.88;5.38;;;-4.10;99.90;;;;;;5009341;28;20049;-38
2023/04/05 04:30:54;;;;;;;10.82;5.57;;;-4.20;99.90;;;;;;5002775;28;20068;-39
2023/04/05 04:33:33;;;;;;;5.45;5.05;;;-4.20;99.90;;;;;;5002422;28;20045;-40
2023/04/05 04:36:35;;;;;;;11.60;6.32;;;-4.20;99.90;;;;;;5001385;28;20041;-39
2023/04/05 04:39:26;;;;;;;7.18;6.28;;;-4.20;99.90;;;;;;5017085;28;20422;-43
2023/04/05 04:42:18;;;;;;;6.32;5.75;;;-4.30;99.90;;;;;;5011026;28;20679;-39
2023/04/05 04:45:09;;;;;;;6.47;4.05;;;-4.40;99.90;;;;;;5020332;28;20057;-40
2023/04/05 04:47:52;;;;;;;7.32;5.00;;;-4.30;99.90;;;;;;5015310;28;20064;-39
2023/04/05 04:50:38;;;;;;;4.68;4.28;;;-4.30;99.90;;;;;;5015472;28;20046;-38
2023/04/05 04:53:06;;;;;;;5.43;5.03;;;-4.40;99.90;;;;;;5021685;28;20383;-40
2023/04/05 04:55:35;;;;;;;6.57;6.03;;;-4.20;99.90;;;;;;5024659;28;20526;-39
2023/04/05 04:58:08;;;;;;;5.22;4.75;;;-4.10;99.90;;;;;;5022835;28;20053;-40
2023/04/05 05:00:43;;;;;;;5.60;4.70;;;-4.10;99.90;;;;;;5024756;28;20045;-39
2023/04/05 05:03:12;;;;;;;5.82;5.28;;;-4.00;99.90;;;;;;5022954;28;20650;-39
2023/04/05 05:05:48;;;;;;;6.88;4.80;;;-3.90;99.90;;;;;;5021980;28;20050;-38
2023/04/05 05:08:20;;;;;;;5.75;5.20;;;-3.80;99.90;;;;;;5003344;28;20506;-40
2023/04/05 05:10:52;;;;;;;6.25;5.55;;;-3.60;99.90;;;;;;5014883;28;20500;-38
2023/04/05 05:13:19;;;;;;;7.55;5.25;;;-3.60;99.90;;;;;;5023947;28;20092;-39
2023/04/05 05:15:47;;;;;;;9.10;4.85;;;-3.50;99.90;;;;;;5023550;28;20540;-39
2023/04/05 05:18:15;;;;;;;5.32;4.85;;;-3.50;99.90;;;;;;5023298;28;20044;-41
2023/04/05 05:20:43;;;;;;;14.98;5.78;;;-3.40;99.90;;;;;;5022675;28;20061;-41
2023/04/05 05:23:11;;;;;;;5.60;4.65;;;-3.40;99.90;;;;;;5021902;28;20520;-39
2023/04/05 05:25:38;;;;;;;6.20;5.65;;;-3.30;99.90;;;;;;5023885;28;20065;-39
2023/04/05 05:28:06;;;;;;;8.98;6.75;;;-3.20;99.90;;;;;;5022205;28;20045;-41
2023/04/05 05:30:34;;;;;;;10.02;5.40;;;-3.20;99.90;;;;;;5026784;28;20045;-39
2023/04/05 05:33:01;;;;;;;4.95;4.38;;;-3.10;99.90;;;;;;5025948;28;20063;-39
2023/04/05 05:35:29;;;;;;;7.70;5.18;;;-3.10;99.90;;;;;;5022294;28;20701;-39
2023/04/05 05:37:56;;;;;;;5.03;4.63;;;-3.00;99.90;;;;;;5025494;28;20053;-39
2023/04/05 05:40:25;;;;;;;4.38;4.07;;;-2.90;99.90;;;;;;5025171;28;20061;-40
2023/04/05 05:42:53;;;;;;;4.22;3.70;;;-2.80;99.90;;;;;;5023062;28;20056;-38
2023/04/05 05:45:20;;;;;;;6.78;4.20;;;-2.60;99.90;;;;;;5022589;28;20650;-38
2023/04/05 05:47:48;;;;;;;4.80;2.03;;;-2.50;99.90;;;;;;5023478;28;20205;-40
2023/04/05 05:50:16;;;;;;;4.88;4.00;;;-2.30;99.90;;;;;;5022612;28;20417;-41
2023/04/05 05:52:43;;;;;;;6.95;4.70;;;-2.20;99.90;;;;;;5028267;28;20321;-40
2023/04/05 05:55:11;;;;;;;5.50;5.00;;;-2.10;99.90;;;;;;5022139;28;20049;-40
2023/04/05 05:57:39;;;;;;;4.40;4.05;;;-1.90;99.90;;;;;;5021404;28;20132;-42
2023/04/05 06:00:08;;;;;;;9.65;5.57;;;-1.80;99.90;;;;;;5020701;28;20052;-41
2023/04/05 06:02:39;;;;;;;4.03;3.72;;;-1.60;99.90;;;;;;5021258;28;20048;-44
2023/04/05 06:05:07;;;;;;;2.17;2.08;;;-1.30;99.90;;;;;;5019574;28;20053;-45
2023/04/05 06:07:36;;;;;;;8.65;2.47;;;-1.00;99.90;;;;;;5019785;28;20053;-44
2023/04/05 06:10:05;;;;;;;5.75;4.20;;;-0.80;99.90;;;;;;5021456;28;20093;-47
2023/04/05 06:12:33;;;;;;;7.45;4.05;;;-0.40;99.90;;;;;;5022494;28;20052;-45
2023/04/05 06:15:01;;;;;;;5.28;4.85;;;0.10;99.90;;;;;;5020972;28;20042;-45
2023/04/05 06:17:29;;;;;;;11.93;3.08;;;0.80;99.90;;;;;;5023300;28;20049;-48
2023/04/05 06:19:56;;;;;;;6.60;6.03;;;1.20;99.90;;;;;;5021267;28;20062;-42
2023/04/05 06:22:24;;;;;;;9.40;3.00;;;1.70;99.90;;;;;;5022157;28;20495;-45
2023/04/05 06:24:51;;;;;;;5.93;5.25;;;2.00;99.90;;;;;;5019962;28;20057;-43
2023/04/05 06:27:19;;;;;;;7.50;5.22;;;2.40;99.90;;;;;;5021245;28;20049;-45
2023/04/05 06:29:46;;;;;;;3.75;2.88;;;2.70;99.90;;;;;;5021188;28;20084;-41
2023/04/05 06:32:14;;;;;;;2.95;2.75;;;3.00;99.90;;;;;;5021561;28;20050;-42
2023/04/05 06:34:41;;;;;;;6.13;3.75;;;3.50;99.90;;;;;;5019804;28;20065;-40
2023/04/05 06:37:09;;;;;;;3.50;2.75;;;3.80;99.90;;;;;;5022232;28;20053;-39
2023/04/05 06:39:37;;;;;;;3.55;3.22;;;4.10;99.90;;;;;;5021234;28;20057;-42
2023/04/05 06:42:04;;;;;;;13.63;5.05;;;4.30;99.90;;;;;;5020703;28;20060;-38
2023/04/05 06:44:40;;;;;;;5.00;4.50;;;4.80;99.90;;;;;;5019723;28;20049;-39
2023/04/05 06:47:07;;;;;;;5.80;4.55;;;5.30;99.90;;;;;;5011258;28;20056;-38
2023/04/05 06:49:35;;;;;;;3.08;2.78;;;5.90;99.60;;;;;;5017807;28;20622;-38
2023/04/05 06:52:04;;;;;;;8.93;4.50;;;6.40;96.20;;;;;;5020989;28;20053;-38
2023/04/05 06:54:33;;;;;;;3.28;3.00;;;6.80;94.60;;;;;;5021691;28;20064;-38
2023/04/05 06:57:01;;;;;;;3.78;3.40;;;7.10;93.00;;;;;;5022213;28;20069;-38
2023/04/05 06:59:28;;;;;;;4.15;3.75;;;6.60;92.50;;;;;;5021541;28;20056;-38
2023/04/05 07:01:56;;;;;;;5.07;4.65;;;6.20;93.60;;;;;;5021827;28;20053;-38
2023/04/05 07:04:25;;;;;;;9.60;4.93;;;6.00;93.90;;;;;;5019843;28;20049;-38
2023/04/05 07:06:53;;;;;;;7.13;5.65;;;6.70;95.20;;;;;;5021561;28;20053;-38
2023/04/05 07:09:23;;;;;;;4.88;4.38;;;7.70;93.10;;;;;;5021620;28;20072;-41
2023/04/05 07:11:50;;;;;;;10.10;4.75;;;8.50;90.80;;;;;;5019110;28;20057;-38
2023/04/05 07:14:18;;;;;;;4.72;4.30;;;8.70;79.10;;;;;;5020889;28;20437;-38
2023/04/05 07:16:45;;;;;;;3.97;3.63;;;7.70;83.10;;;;;;5021919;28;20053;-38
2023/04/05 07:19:16;;;;;;;5.97;5.45;;;7.20;86.50;;;;;;5017946;28;20049;-38
2023/04/05 07:21:43;;;;;;;7.70;4.65;;;7.40;89.30;;;;;;5020131;28;20504;-37
2023/04/05 07:24:11;;;;;;;7.03;4.07;;;7.90;85.20;;;;;;5021830;28;20046;-37
2023/04/05 07:26:38;;;;;;;4.63;3.65;;;8.00;82.20;;;;;;5017671;28;20045;-38
2023/04/05 07:29:07;;;;;;;3.80;3.47;;;8.80;81.20;;;;;;5018808;28;20472;-38
2023/04/05 07:31:35;;;;;;;5.18;3.90;;;8.90;78.30;;;;;;5020221;28;20430;-38
2023/04/05 07:34:02;;;;;;;6.25;3.67;;;8.90;76.70;;;;;;5011220;28;20236;-38
2023/04/05 07:36:30;;;;;;;4.82;4.32;;;9.30;74.70;;;;;;5017304;28;20425;-37
2023/04/05 07:38:58;;;;;;;7.63;4.85;;;9.40;74.80;;;;;;5021136;28;20049;-37
2023/04/05 07:41:30;;;;;;;4.07;3.75;;;9.20;73.70;;;;;;5020796;28;20069;-38
2023/04/05 07:43:58;;;;;;;5.03;4.60;;;8.90;75.80;;;;;;5020285;28;20516;-38
2023/04/05 07:46:26;;;;;;;5.05;4.55;;;9.40;75.80;;;;;;5019308;28;20057;-38
2023/04/05 07:48:53;;;;;;;5.43;4.13;;;7.70;79.30;;;;;;5018106;28;20073;-38
2023/04/05 07:51:21;;;;;;;5.18;4.13;;;7.60;87.00;;;;;;5017645;28;20505;-37
2023/04/05 07:53:49;;;;;;;6.00;5.40;;;9.30;77.90;;;;;;5018926;28;20369;-37
2023/04/05 07:56:16;;;;;;;6.55;4.70;;;10.00;71.10;;;;;;5018691;28;20057;-38
2023/04/05 07:58:44;;;;;;;6.03;4.18;;;10.20;72.50;;;;;;5018970;28;20405;-37
2023/04/05 08:01:12;;;;;;;3.53;3.22;;;10.70;69.00;;;;;;5018825;28;20597;-38
2023/04/05 08:03:39;;;;;;;5.35;4.47;;;10.90;70.20;;;;;;5015992;28;20056;-39
2023/04/05 08:06:17;;;;;;;5.55;4.65;;;9.70;70.20;;;;;;5017612;28;20064;-37
2023/04/05 08:08:46;;;;;;;5.60;4.85;;;8.40;73.40;;;;;;5019743;28;20049;-37
2023/04/05 08:11:13;;;;;;;5.05;4.65;;;8.00;75.20;;;;;;5018365;28;20053;-37
2023/04/05 08:13:41;;;;;;;4.93;3.90;;;7.80;74.90;;;;;;5018124;28;20060;-37
2023/04/05 08:16:10;;;;;;;4.75;3.85;;;8.20;76.80;;;;;;5021141;28;20056;-37
2023/04/05 08:18:38;;;;;;;5.43;4.60;;;8.80;73.10;;;;;;5014492;28;21287;-37
2023/04/05 08:21:05;;;;;;;3.72;3.35;;;8.40;73.70;;;;;;5010461;28;20054;-37
2023/04/05 08:23:33;;;;;;;6.70;4.18;;;8.70;72.50;;;;;;5017332;28;20045;-37
2023/04/05 08:26:01;;;;;;;7.32;5.57;;;9.20;70.00;;;;;;5020194;28;20065;-38
2023/04/05 08:28:28;;;;;;;6.20;3.97;;;9.70;69.90;;;;;;5022447;28;20489;-37
2023/04/05 08:30:57;;;;;;;5.88;4.82;;;10.80;65.60;;;;;;5022298;28;20076;-37
2023/04/05 08:33:29;;;;;;;3.97;3.58;;;10.50;66.60;;;;;;5024850;28;20057;-38
2023/04/05 08:36:09;;;;;;;5.35;4.90;;;9.70;67.60;;;;;;5022740;28;20041;-37
2023/04/05 08:38:37;;;;;;;3.47;3.15;;;9.00;69.70;;;;;;5022119;28;20399;-37
2023/04/05 08:41:16;;;;;;;7.13;3.72;;;9.30;68.30;;;;;;5024171;28;20073;-38
2023/04/05 08:44:01;;;;;;;8.75;5.45;;;9.10;66.90;;;;;;5021101;28;20068;-38
2023/04/05 08:46:33;;;;;;;4.38;3.83;;;9.40;67.90;;;;;;5023953;28;20049;-38
2023/04/05 08:49:07;;;;;;;9.57;7.28;;;10.00;64.50;;;;;;5023567;28;20387;-38
2023/04/05 08:51:38;;;;;;;4.30;3.78;;;10.80;64.70;;;;;;5019429;28;20053;-37
2023/04/05 08:54:06;;;;;;;11.63;4.53;;;11.90;62.90;;;;;;5025017;28;20509;-38
2023/04/05 08:56:35;;;;;;;4.05;3.72;;;11.80;61.80;;;;;;5024919;28;20419;-37
2023/04/05 08:59:05;;;;;;;8.68;4.97;;;11.00;60.70;;;;;;5023539;28;20433;-38
2023/04/05 09:01:36;;;;;;;7.43;5.93;;;10.20;61.50;;;;;;5023446;28;20061;-38
2023/04/05 09:04:11;;;;;;;9.45;5.22;;;9.00;64.00;;;;;;5021494;28;20049;-38
2023/04/05 09:06:39;;;;;;;3.05;2.80;;;9.00;66.20;;;;;;5024067;28;20469;-37
2023/04/05 09:09:07;;;;;;;5.00;4.38;;;8.80;66.50;;;;;;5023120;28;20045;-38
2023/04/05 09:11:35;;;;;;;3.58;3.28;;;7.60;66.80;;;;;;5022222;28;20049;-37
2023/04/05 09:14:04;;;;;;;6.80;5.28;;;7.40;70.30;;;;;;5022836;28;20057;-37
2023/04/05 09:16:39;;;;;;;3.83;3.25;;;8.70;70.10;;;;;;5023763;28;20049;-38
2023/04/05 09:19:09;;;;;;;4.60;3.50;;;7.80;68.80;;;;;;5017987;28;20425;-38
2023/04/05 09:22:09;;;;;;;5.45;4.95;;;7.10;70.70;;;;;;5022910;28;20064;-38
2023/04/05 09:24:41;;;;;;;7.05;5.47;;;6.90;69.90;;;;;;5006106;28;20049;-38
2023/04/05 09:27:16;;;;;;;12.18;5.28;;;5.40;75.40;;;;;;5022899;28;20426;-37
2023/04/05 09:29:48;;;;;;;5.97;4.78;;;5.20;78.90;;;;;;5014914;28;20396;-37
2023/04/05 09:32:19;;;;;;;6.50;5.28;;;5.40;81.60;;;;;;5023149;28;20055;-37
2023/04/05 09:34:47;;;;;;;7.10;5.43;;;5.50;85.80;;;;;;5025240;28;20152;-37
2023/04/05 09:37:22;;;;;;;4.65;4.18;;;5.70;83.60;;;;;;5005527;28;20053;-37
2023/04/05 09:40:00;;;;;;;6.78;4.63;;;6.00;88.60;;;;;;5023528;28;20518;-38
2023/04/05 09:42:33;;;;;;;3.97;3.65;;;5.80;84.70;;;;;;5016376;28;20064;-37
2023/04/05 09:45:01;;;;;;;5.43;4.93;;;5.80;78.40;;;;;;5024008;28;20565;-38
2023/04/05 09:47:33;;;;;;;5.85;4.70;;;5.90;78.60;;;;;;5019981;28;20051;-36
2023/04/05 09:50:13;;;;;;;;;;;5.30;77.80;;;;;;5018281;28;20061;-38
2023/04/05 09:52:42;;;;;;;5.60;5.07;;;5.30;86.70;;;;;;5023707;28;19924;-35
2023/04/05 09:55:10;;;;;;;5.55;4.90;;;5.30;86.40;;;;;;5023894;28;20049;-36
2023/04/05 09:57:40;;;;;;;5.05;4.60;;;5.60;85.00;;;;;;5022162;28;20060;-36
2023/04/05 10:00:18;;;;;;;4.18;3.88;;;5.80;87.50;;;;;;5018634;28;20513;-35
2023/04/05 10:02:54;;;;;;;4.35;3.92;;;5.70;85.60;;;;;;5022231;28;20568;-35
2023/04/05 10:05:27;;;;;;;4.72;4.03;;;5.70;78.30;;;;;;5022193;28;20064;-35
2023/04/05 10:07:55;;;;;;;6.30;4.65;;;5.60;80.00;;;;;;5024585;28;20049;-35
2023/04/05 10:10:24;;;;;;;5.30;4.80;;;5.80;82.00;;;;;;5022857;28;20072;-35
2023/04/05 10:12:52;;;;;;;5.80;4.68;;;5.30;78.50;;;;;;5020666;28;20064;-36
2023/04/05 10:15:22;;;;;;;5.90;5.32;;;5.00;81.90;;;;;;5018908;28;20042;-36
2023/04/05 10:17:54;;;;;;;4.28;3.83;;;4.80;83.20;;;;;;5022637;28;20064;-34
2023/04/05 10:20:23;;;;;;;4.30;3.97;;;4.90;86.70;;;;;;5018125;28;20056;-35
2023/04/05 10:22:51;;;;;;;4.20;3.90;;;5.20;85.30;;;;;;5021949;28;20052;-35
2023/04/05 10:25:52;;;;;;;3.15;2.90;;;5.40;83.00;;;;;;5021371;28;20061;-35
2023/04/05 10:28:35;;;;;;;5.10;4.18;;;5.50;82.90;;;;;;5002192;28;20504;-34
2023/04/05 10:31:11;;;;;;;5.32;4.78;;;5.60;89.90;;;;;;5021827;28;20069;-35
2023/04/05 10:33:46;;;;;;;5.23;4.87;;;5.60;82.10;;;;;;5020827;28;20053;-35
2023/04/05 10:36:50;;;;;;;5.13;4.38;;;5.40;88.30;;;;;;5022692;28;20468;-34
2023/04/05 10:39:28;;;;;;;7.43;5.78;;;5.40;88.20;;;;;;5015788;28;20068;-35
2023/04/05 10:42:05;;;;;;;9.50;4.45;;;5.50;90.30;;;;;;5021492;28;20050;-35
2023/04/05 10:44:36;;;;;;;5.03;3.72;;;5.80;84.30;;;;;;5020697;28;20057;-36
2023/04/05 10:47:05;;;;;;;6.03;5.28;;;5.80;85.70;;;;;;5022187;28;20064;-35
2023/04/05 10:49:41;;;;;;;5.00;4.50;;;5.50;85.10;;;;;;5016771;28;20822;-35
2023/04/05 10:52:09;;;;;;;3.45;3.17;;;5.30;87.00;;;;;;5012518;28;20521;-35
2023/04/05 10:54:37;;;;;;;7.53;4.90;;;5.40;87.30;;;;;;5022471;28;20043;-35
2023/04/05 10:57:07;;;;;;;4.80;4.40;;;5.50;90.60;;;;;;5021747;28;20050;-35
2023/04/05 10:59:43;;;;;;;5.60;5.10;;;5.80;88.20;;;;;;5021153;28;20388;-35
2023/04/05 11:02:13;;;;;;;7.78;5.80;;;6.10;80.80;;;;;;5019736;28;20049;-35
2023/04/05 11:04:41;;;;;;;5.18;4.68;;;6.00;85.30;;;;;;5019289;28;20057;-35
2023/04/05 11:07:11;;;;;;;5.70;5.20;;;6.00;83.50;;;;;;5021370;28;20478;-35
2023/04/05 11:09:49;;;;;;;5.43;5.03;;;6.10;91.10;;;;;;5019660;28;20049;-34
2023/04/05 11:12:17;;;;;;;12.98;5.45;;;6.00;93.00;;;;;;4999509;28;20072;-34
2023/04/05 11:14:44;;;;;;;9.65;6.43;;;6.00;90.00;;;;;;5019741;28;20449;-34
2023/04/05 11:17:26;;;;;;;11.75;5.63;;;6.30;90.30;;;;;;5022327;28;20053;-35
2023/04/05 11:20:05;;;;;;;3.95;3.63;;;6.40;89.20;;;;;;5020749;28;20469;-35
2023/04/05 11:22:32;;;;;;;6.97;4.00;;;6.70;86.10;;;;;;5021269;28;20366;-34
2023/04/05 11:25:01;;;;;;;6.43;5.63;;;6.40;74.30;;;;;;5022428;28;20425;-35
2023/04/05 11:27:31;;;;;;;6.10;5.50;;;6.10;79.20;;;;;;5020803;28;20050;-35
2023/04/05 11:30:01;;;;;;;9.15;5.10;;;5.90;91.70;;;;;;5020508;28;20485;-35
2023/04/05 11:32:42;;;;;;;7.30;4.80;;;6.20;84.30;;;;;;5021123;28;20489;-34
2023/04/05 11:35:22;;;;;;;4.25;3.85;;;6.50;86.40;;;;;;5020581;28;20045;-35
2023/04/05 11:38:01;;;;;;;4.30;3.72;;;6.50;78.80;;;;;;5020015;28;20057;-35
2023/04/05 11:40:31;;;;;;;7.55;6.10;;;6.30;78.40;;;;;;5020591;28;20469;-35
2023/04/05 11:43:06;;;;;;;5.93;5.40;;;6.30;82.50;;;;;;5021175;28;20056;-36
2023/04/05 11:45:36;;;;;;;6.05;5.20;;;6.10;81.20;;;;;;5021925;28;20064;-35
2023/04/05 11:48:08;;;;;;;4.78;4.38;;;6.20;80.40;;;;;;5020923;28;20056;-35
2023/04/05 11:50:37;;;;;;;7.80;4.95;;;6.30;85.80;;;;;;5018509;28;20609;-35
2023/04/05 11:53:15;;;;;;;7.65;7.05;;;6.70;81.00;;;;;;5021712;28;20057;-35
2023/04/05 11:55:45;;;;;;;5.97;5.45;;;7.00;86.30;;;;;;5020089;28;20061;-35
2023/04/05 11:58:15;;;;;;;6.55;5.95;;;6.90;80.60;;;;;;5020822;28;20082;-35
2023/04/05 12:00:44;;;;;;;6.50;5.82;;;6.90;90.50;;;;;;5020650;28;20060;-35
2023/04/05 12:03:16;;;;;;;9.82;4.47;;;7.20;86.70;;;;;;5020199;28;20077;-35
2023/04/05 12:05:48;;;;;;;9.20;4.78;;;7.40;79.50;;;;;;5021566;28;20073;-35
2023/04/05 12:08:18;;;;;;;9.00;4.68;;;7.30;78.90;;;;;;5020552;28;20054;-35
2023/04/05 12:11:01;;;;;;;5.43;5.00;;;7.20;75.10;;;;;;5024894;28;20488;-35
2023/04/05 12:13:31;;;;;;;9.13;5.50;;;6.90;80.30;;;;;;5021180;28;20045;-36
2023/04/05 12:16:00;;;;;;;11.25;5.80;;;6.80;91.30;;;;;;5024487;28;20569;-35
2023/04/05 12:18:31;;;;;;;7.43;5.22;;;6.30;83.80;;;;;;5024306;28;20068;-35
2023/04/05 12:21:00;;;;;;;6.00;4.95;;;6.40;81.50;;;;;;5023556;28;20064;-36
2023/04/05 12:23:30;;;;;;;7.47;5.95;;;6.00;85.40;;;;;;5024022;28;20041;-35
2023/04/05 12:25:58;;;;;;;6.82;5.63;;;5.90;84.80;;;;;;5024179;28;20064;-36
2023/04/05 12:28:49;;;;;;;5.60;5.10;;;6.00;87.60;;;;;;5024142;28;20068;-35
2023/04/05 12:31:16;;;;;;;6.28;5.78;;;6.20;92.10;;;;;;5021784;28;20851;-36
2023/04/05 12:33:44;;;;;;;4.60;4.25;;;6.30;90.60;;;;;;5016996;28;20087;-36
2023/04/05 12:36:14;;;;;;;7.28;6.47;;;6.10;87.50;;;;;;5023587;28;20057;-35
2023/04/05 12:38:42;;;;;;;5.45;5.05;;;6.20;83.50;;;;;;5023838;28;20041;-35
2023/04/05 12:41:09;;;;;;;12.93;5.15;;;6.30;80.50;;;;;;5024946;28;20494;-35
2023/04/05 12:43:41;;;;;;;5.80;5.00;;;6.40;81.90;;;;;;5024515;28;20045;-48
2023/04/05 12:46:09;;;;;;;;;;;6.50;87.10;;;;;;5023539;28;20305;-48
2023/04/05 12:48:38;;;;;;;5.40;4.90;;;6.70;81.70;;;;;;5023278;28;19929;-48
2023/04/05 12:51:15;;;;;;;5.65;5.10;;;6.40;86.40;;;;;;5022711;28;20053;-47
2023/04/05 12:53:46;;;;;;;4.78;4.32;;;5.90;84.30;;;;;;5022969;28;20068;-48
2023/04/05 12:56:15;;;;;;;7.32;6.28;;;6.00;90.20;;;;;;5024441;28;20544;-48
2023/04/05 12:58:47;;;;;;;5.25;4.70;;;5.90;88.20;;;;;;5023121;28;20092;-47
2023/04/05 13:01:14;;;;;;;5.97;4.63;;;5.70;84.50;;;;;;5024380;28;20358;-47
2023/04/05 13:03:46;;;;;;;9.93;5.38;;;5.70;88.70;;;;;;5021634;28;20049;-47
2023/04/05 13:06:16;;;;;;;4.68;4.05;;;5.90;86.60;;;;;;5024056;28;20054;-46
2023/04/05 13:08:44;;;;;;;9.32;4.50;;;6.30;85.60;;;;;;5024624;28;20420;-47
2023/04/05 13:11:11;;;;;;;5.18;4.60;;;6.20;81.90;;;;;;5023673;28;20056;-47
2023/04/05 13:13:39;;;;;;;5.88;5.30;;;5.90;82.30;;;;;;5023150;28;20057;-48
2023/04/05 13:16:06;;;;;;;7.95;4.65;;;5.90;84.50;;;;;;5022602;28;20532;-46
2023/04/05 13:18:34;;;;;;;4.72;4.32;;;5.90;81.80;;;;;;5022542;28;20426;-47
2023/04/05 13:21:06;;;;;;;5.65;4.82;;;5.90;83.40;;;;;;5022177;28;20060;-47
2023/04/05 13:23:35;;;;;;;5.65;5.15;;;6.10;83.80;;;;;;5023171;28;20537;-47
2023/04/05 13:26:03;;;;;;;5.93;5.43;;;6.40;81.20;;;;;;5023028;28;20510;-47
2023/04/05 13:28:31;;;;;;;7.75;6.15;;;6.60;87.90;;;;;;5019393;28;20072;-47